Terminal Aerodrome Forecast
Issued by NWS

Home | Current Version | Previous Version | Text Only | Print | Product List | Glossary Off
Versions: 1 2 3 4 5 6 7 8 9 10 11 12 13 14 15 16 17 18 19 20 21 22 23 24 25 26 27 28 29 30 31 32 33

777
FTUS43 KLOT 171909 AAA
TAFMDW
TAF AMD
KMDW 171909Z 1719/1818 17015G23KT P6SM SCT030 OVC070
      TEMPO 1720/1722 5SM -RA BKN025
     FM172200 17015G23KT P6SM SCT015 OVC025
     FM180000 18015G22KT 4SM -RA SCT007 OVC010 WS020/20050KT
     FM180400 21012KT 3SM -RA BR OVC007 WS020/21045KT
     FM180800 28009KT 2SM -DZ BR OVC004
     FM181200 35008KT 2SM -DZ BR OVC004
     FM181500 36016G26KT 3SM -RA BR BKN006 OVC015=

USA.gov is the U.S. government's official web portal to all federal, state and local government web resources and services.